sensor_id;sensor_type;location;lat;lon;timestamp;pressure;altitude;pressure_sealevel;temperature;humidity
16100;BME280;8154;50.830;12.082;2022-07-06T00:01:54;99915.06;;;29.22;31.43
16100;BME280;8154;50.830;12.082;2022-07-06T00:04:38;99918.59;;;29.22;31.40
16100;BME280;8154;50.830;12.082;2022-07-06T00:07:23;99912.38;;;29.22;31.64
16100;BME280;8154;50.830;12.082;2022-07-06T00:10:08;99913.22;;;29.22;31.26
16100;BME280;8154;50.830;12.082;2022-07-06T00:12:52;99904.53;;;29.20;31.53
16100;BME280;8154;50.830;12.082;2022-07-06T00:15:36;99912.00;;;29.18;31.52
16100;BME280;8154;50.830;12.082;2022-07-06T00:18:20;99911.38;;;29.16;31.84
16100;BME280;8154;50.830;12.082;2022-07-06T00:21:05;99915.97;;;29.16;31.65
16100;BME280;8154;50.830;12.082;2022-07-06T00:23:49;99922.38;;;29.15;31.83
16100;BME280;8154;50.830;12.082;2022-07-06T00:26:35;99914.06;;;29.16;31.58
16100;BME280;8154;50.830;12.082;2022-07-06T00:29:19;99910.13;;;29.19;31.85
16100;BME280;8154;50.830;12.082;2022-07-06T00:32:04;99918.22;;;29.19;31.71
16100;BME280;8154;50.830;12.082;2022-07-06T00:34:48;99919.47;;;29.16;32.08
16100;BME280;8154;50.830;12.082;2022-07-06T00:37:32;99915.34;;;29.14;32.10
16100;BME280;8154;50.830;12.082;2022-07-06T00:40:17;99912.06;;;29.12;32.01
16100;BME280;8154;50.830;12.082;2022-07-06T00:43:02;99906.09;;;29.10;32.06
16100;BME280;8154;50.830;12.082;2022-07-06T00:45:46;99909.13;;;29.13;32.04
16100;BME280;8154;50.830;12.082;2022-07-06T00:48:30;99914.53;;;29.13;31.85
16100;BME280;8154;50.830;12.082;2022-07-06T00:51:14;99916.19;;;29.14;32.09
16100;BME280;8154;50.830;12.082;2022-07-06T00:54:00;99914.75;;;29.12;32.18
16100;BME280;8154;50.830;12.082;2022-07-06T00:56:46;99916.25;;;29.08;32.13
16100;BME280;8154;50.830;12.082;2022-07-06T00:59:30;99911.91;;;29.07;32.41
16100;BME280;8154;50.830;12.082;2022-07-06T01:02:14;99907.97;;;29.03;32.32
16100;BME280;8154;50.830;12.082;2022-07-06T01:04:59;99912.94;;;29.06;32.31
16100;BME280;8154;50.830;12.082;2022-07-06T01:07:46;99911.28;;;29.05;32.27
16100;BME280;8154;50.830;12.082;2022-07-06T01:10:30;99907.56;;;29.06;32.41
16100;BME280;8154;50.830;12.082;2022-07-06T01:13:14;99906.31;;;29.08;32.16
16100;BME280;8154;50.830;12.082;2022-07-06T01:15:59;99899.66;;;29.11;32.21
16100;BME280;8154;50.830;12.082;2022-07-06T01:18:43;99901.28;;;29.12;32.06
16100;BME280;8154;50.830;12.082;2022-07-06T01:21:27;99901.91;;;29.14;32.23
16100;BME280;8154;50.830;12.082;2022-07-06T01:24:11;99905.66;;;29.13;32.23
16100;BME280;8154;50.830;12.082;2022-07-06T01:26:55;99902.97;;;29.13;32.14
16100;BME280;8154;50.830;12.082;2022-07-06T01:29:40;99906.09;;;29.10;32.67
16100;BME280;8154;50.830;12.082;2022-07-06T01:32:24;99909.22;;;29.07;32.46
16100;BME280;8154;50.830;12.082;2022-07-06T01:35:11;99901.56;;;29.04;32.25
16100;BME280;8154;50.830;12.082;2022-07-06T01:37:55;99902.19;;;29.06;32.51
16100;BME280;8154;50.830;12.082;2022-07-06T01:40:40;99900.50;;;29.05;32.37
16100;BME280;8154;50.830;12.082;2022-07-06T01:43:24;99898.47;;;29.07;32.43
16100;BME280;8154;50.830;12.082;2022-07-06T01:46:08;99905.47;;;29.08;32.24
16100;BME280;8154;50.830;12.082;2022-07-06T01:48:53;99898.25;;;29.08;32.17
16100;BME280;8154;50.830;12.082;2022-07-06T01:51:37;99902.78;;;29.08;32.40
16100;BME280;8154;50.830;12.082;2022-07-06T01:54:21;99899.03;;;29.09;32.35
16100;BME280;8154;50.830;12.082;2022-07-06T01:57:05;99903.41;;;29.10;32.09
16100;BME280;8154;50.830;12.082;2022-07-06T01:59:50;99898.38;;;29.13;31.73
16100;BME280;8154;50.830;12.082;2022-07-06T02:02:34;99899.66;;;29.11;32.00
16100;BME280;8154;50.830;12.082;2022-07-06T02:05:18;99900.72;;;29.10;31.95
16100;BME280;8154;50.830;12.082;2022-07-06T02:08:02;99895.53;;;29.08;31.91
16100;BME280;8154;50.830;12.082;2022-07-06T02:10:47;99902.78;;;29.08;32.02
16100;BME280;8154;50.830;12.082;2022-07-06T02:13:31;99903.19;;;29.05;31.81
16100;BME280;8154;50.830;12.082;2022-07-06T02:16:15;99903.66;;;29.02;32.29
16100;BME280;8154;50.830;12.082;2022-07-06T02:18:59;99903.03;;;29.00;32.24
16100;BME280;8154;50.830;12.082;2022-07-06T02:21:43;99908.41;;;29.00;32.04
16100;BME280;8154;50.830;12.082;2022-07-06T02:24:27;99911.53;;;28.97;32.19
16100;BME280;8154;50.830;12.082;2022-07-06T02:27:12;99913.00;;;28.99;32.18
16100;BME280;8154;50.830;12.082;2022-07-06T02:29:56;99904.31;;;28.97;31.96
16100;BME280;8154;50.830;12.082;2022-07-06T02:32:40;99910.72;;;28.96;31.89
16100;BME280;8154;50.830;12.082;2022-07-06T02:35:25;99916.53;;;28.93;32.09
16100;BME280;8154;50.830;12.082;2022-07-06T02:38:10;99922.59;;;28.88;31.97
16100;BME280;8154;50.830;12.082;2022-07-06T02:40:54;99925.88;;;28.90;31.89
16100;BME280;8154;50.830;12.082;2022-07-06T02:43:39;99922.97;;;28.92;31.94
16100;BME280;8154;50.830;12.082;2022-07-06T02:46:23;99928.75;;;28.96;31.73
16100;BME280;8154;50.830;12.082;2022-07-06T02:49:07;99925.00;;;28.97;31.66
16100;BME280;8154;50.830;12.082;2022-07-06T02:51:52;99926.06;;;28.96;31.40
16100;BME280;8154;50.830;12.082;2022-07-06T02:54:36;99930.00;;;28.93;31.81
16100;BME280;8154;50.830;12.082;2022-07-06T02:57:20;99927.09;;;28.94;31.83
16100;BME280;8154;50.830;12.082;2022-07-06T03:00:05;99928.13;;;28.93;31.23
16100;BME280;8154;50.830;12.082;2022-07-06T03:02:50;99926.94;;;28.89;31.31
16100;BME280;8154;50.830;12.082;2022-07-06T03:05:34;99932.31;;;28.89;31.33
16100;BME280;8154;50.830;12.082;2022-07-06T03:08:18;99930.66;;;28.88;31.46
16100;BME280;8154;50.830;12.082;2022-07-06T03:11:02;99929.25;;;28.86;31.40
16100;BME280;8154;50.830;12.082;2022-07-06T03:13:47;99930.50;;;28.83;31.37
16100;BME280;8154;50.830;12.082;2022-07-06T03:16:31;99936.69;;;28.84;31.31
16100;BME280;8154;50.830;12.082;2022-07-06T03:19:16;99944.19;;;28.82;31.36
16100;BME280;8154;50.830;12.082;2022-07-06T03:22:00;99942.50;;;28.81;31.02
16100;BME280;8154;50.830;12.082;2022-07-06T03:24:45;99947.50;;;28.77;31.15
16100;BME280;8154;50.830;12.082;2022-07-06T03:27:29;99949.00;;;28.73;31.13
16100;BME280;8154;50.830;12.082;2022-07-06T03:30:14;99949.81;;;28.74;30.99
16100;BME280;8154;50.830;12.082;2022-07-06T03:32:58;99945.88;;;28.76;30.97
16100;BME280;8154;50.830;12.082;2022-07-06T03:35:42;99952.88;;;28.77;31.16
16100;BME280;8154;50.830;12.082;2022-07-06T03:38:26;99955.00;;;28.75;31.07
16100;BME280;8154;50.830;12.082;2022-07-06T03:41:10;99952.53;;;28.74;30.79
16100;BME280;8154;50.830;12.082;2022-07-06T03:43:54;99959.13;;;28.71;31.02
16100;BME280;8154;50.830;12.082;2022-07-06T03:46:39;99959.75;;;28.73;30.83
16100;BME280;8154;50.830;12.082;2022-07-06T03:49:23;99956.44;;;28.71;31.05
16100;BME280;8154;50.830;12.082;2022-07-06T03:52:10;99969.09;;;28.71;30.97
16100;BME280;8154;50.830;12.082;2022-07-06T03:54:55;99970.34;;;28.68;30.73
16100;BME280;8154;50.830;12.082;2022-07-06T03:57:39;99969.09;;;28.71;30.67
16100;BME280;8154;50.830;12.082;2022-07-06T04:00:24;99963.72;;;28.71;30.58
16100;BME280;8154;50.830;12.082;2022-07-06T04:03:08;99969.09;;;28.71;30.73
16100;BME280;8154;50.830;12.082;2022-07-06T04:05:53;99957.50;;;28.70;30.59
16100;BME280;8154;50.830;12.082;2022-07-06T04:08:37;99963.94;;;28.69;30.71
16100;BME280;8154;50.830;12.082;2022-07-06T04:11:22;99974.50;;;28.64;30.73
16100;BME280;8154;50.830;12.082;2022-07-06T04:14:06;99970.34;;;28.68;30.50
16100;BME280;8154;50.830;12.082;2022-07-06T04:16:50;99979.84;;;28.71;30.94
16100;BME280;8154;50.830;12.082;2022-07-06T04:19:34;99979.84;;;28.71;30.37
16100;BME280;8154;50.830;12.082;2022-07-06T04:22:18;99981.09;;;28.68;30.40
16100;BME280;8154;50.830;12.082;2022-07-06T04:25:03;99982.75;;;28.69;30.47
16100;BME280;8154;50.830;12.082;2022-07-06T04:27:47;99984.84;;;28.67;30.40
16100;BME280;8154;50.830;12.082;2022-07-06T04:30:31;99984.84;;;28.67;30.40
16100;BME280;8154;50.830;12.082;2022-07-06T04:33:16;99986.91;;;28.65;30.76
16100;BME280;8154;50.830;12.082;2022-07-06T04:36:00;99989.00;;;28.63;30.75
16100;BME280;8154;50.830;12.082;2022-07-06T04:38:44;99996.66;;;28.66;30.51
16100;BME280;8154;50.830;12.082;2022-07-06T04:41:31;99997.44;;;28.67;30.61
16100;BME280;8154;50.830;12.082;2022-07-06T04:44:15;99997.66;;;28.65;30.42
16100;BME280;8154;50.830;12.082;2022-07-06T04:47:01;99996.88;;;28.65;30.48
16100;BME280;8154;50.830;12.082;2022-07-06T04:49:45;99992.69;;;28.69;30.66
16100;BME280;8154;50.830;12.082;2022-07-06T04:52:29;100003.66;;;28.67;30.65
16100;BME280;8154;50.830;12.082;2022-07-06T04:55:13;99991.84;;;28.68;30.58
16100;BME280;8154;50.830;12.082;2022-07-06T04:57:58;99999.34;;;28.66;30.86
16100;BME280;8154;50.830;12.082;2022-07-06T05:00:42;99999.34;;;28.66;30.59
16100;BME280;8154;50.830;12.082;2022-07-06T05:03:26;100001.84;;;28.61;30.86
16100;BME280;8154;50.830;12.082;2022-07-06T05:06:10;100013.81;;;28.65;30.65
16100;BME280;8154;50.830;12.082;2022-07-06T05:08:55;100014.66;;;28.66;30.72
16100;BME280;8154;50.830;12.082;2022-07-06T05:11:39;100012.78;;;28.66;30.73
16100;BME280;8154;50.830;12.082;2022-07-06T05:14:24;100013.81;;;28.65;30.57
16100;BME280;8154;50.830;12.082;2022-07-06T05:17:09;100006.34;;;28.67;30.63
16100;BME280;8154;50.830;12.082;2022-07-06T05:19:54;100016.28;;;28.67;30.55
16100;BME280;8154;50.830;12.082;2022-07-06T05:22:38;100019.81;;;28.67;30.55
16100;BME280;8154;50.830;12.082;2022-07-06T05:25:22;100024.56;;;28.65;30.63
16100;BME280;8154;50.830;12.082;2022-07-06T05:28:06;100015.69;;;28.65;30.47
16100;BME280;8154;50.830;12.082;2022-07-06T05:30:51;100024.56;;;28.65;30.62
16100;BME280;8154;50.830;12.082;2022-07-06T05:33:35;100032.63;;;28.65;30.32
16100;BME280;8154;50.830;12.082;2022-07-06T05:36:20;100031.63;;;28.66;30.23
16100;BME280;8154;50.830;12.082;2022-07-06T05:39:04;100027.88;;;28.67;30.28
16100;BME280;8154;50.830;12.082;2022-07-06T05:41:48;100026.25;;;28.66;30.41
16100;BME280;8154;50.830;12.082;2022-07-06T05:44:32;100027.25;;;28.65;30.40
16100;BME280;8154;50.830;12.082;2022-07-06T05:47:17;100027.88;;;28.67;30.31
16100;BME280;8154;50.830;12.082;2022-07-06T05:50:20;100032.19;;;28.68;30.30
16100;BME280;8154;50.830;12.082;2022-07-06T05:53:05;100037.00;;;28.66;30.33
16100;BME280;8154;50.830;12.082;2022-07-06T05:55:50;100041.75;;;28.64;30.18
16100;BME280;8154;50.830;12.082;2022-07-06T05:58:34;100030.56;;;28.67;30.17
16100;BME280;8154;50.830;12.082;2022-07-06T06:01:19;100041.09;;;28.69;30.60
16100;BME280;8154;50.830;12.082;2022-07-06T06:04:03;100041.09;;;28.69;30.63
16100;BME280;8154;50.830;12.082;2022-07-06T06:06:48;100045.06;;;28.66;30.40
16100;BME280;8154;50.830;12.082;2022-07-06T06:09:32;100050.22;;;28.68;30.45
16100;BME280;8154;50.830;12.082;2022-07-06T06:12:16;100048.34;;;28.68;30.23
16100;BME280;8154;50.830;12.082;2022-07-06T06:15:01;100049.41;;;28.67;30.09
16100;BME280;8154;50.830;12.082;2022-07-06T06:17:45;100052.50;;;28.71;30.06
16100;BME280;8154;50.830;12.082;2022-07-06T06:20:29;100066.31;;;28.74;30.00
16100;BME280;8154;50.830;12.082;2022-07-06T06:23:14;100066.09;;;28.76;29.75
16100;BME280;8154;50.830;12.082;2022-07-06T06:25:58;100059.47;;;28.78;29.73
16100;BME280;8154;50.830;12.082;2022-07-06T06:28:42;100057.88;;;28.71;29.53
16100;BME280;8154;50.830;12.082;2022-07-06T06:31:27;100066.31;;;28.74;29.54
16100;BME280;8154;50.830;12.082;2022-07-06T06:34:11;100063.63;;;28.74;29.79
16100;BME280;8154;50.830;12.082;2022-07-06T06:36:55;100058.47;;;28.73;29.52
16100;BME280;8154;50.830;12.082;2022-07-06T06:39:39;100067.75;;;28.77;29.71
16100;BME280;8154;50.830;12.082;2022-07-06T06:42:23;100072.09;;;28.78;29.57
16100;BME280;8154;50.830;12.082;2022-07-06T06:45:08;100071.69;;;28.74;29.59
16100;BME280;8154;50.830;12.082;2022-07-06T06:47:52;100068.56;;;28.77;29.59
16100;BME280;8154;50.830;12.082;2022-07-06T06:50:37;100072.09;;;28.78;29.51
16100;BME280;8154;50.830;12.082;2022-07-06T06:53:21;100075.41;;;28.80;29.56
16100;BME280;8154;50.830;12.082;2022-07-06T06:56:05;100076.06;;;28.75;29.65
16100;BME280;8154;50.830;12.082;2022-07-06T06:58:50;100075.88;;;28.70;29.91
16100;BME280;8154;50.830;12.082;2022-07-06T07:01:34;100069.66;;;28.70;29.84
16100;BME280;8154;50.830;12.082;2022-07-06T07:04:18;100071.53;;;28.69;29.65
16100;BME280;8154;50.830;12.082;2022-07-06T07:07:02;100075.88;;;28.70;29.65
16100;BME280;8154;50.830;12.082;2022-07-06T07:09:46;100076.28;;;28.67;29.98
16100;BME280;8154;50.830;12.082;2022-07-06T07:12:30;100075.88;;;28.70;29.98
16100;BME280;8154;50.830;12.082;2022-07-06T07:15:15;100079.19;;;28.66;29.67
16100;BME280;8154;50.830;12.082;2022-07-06T07:18:00;100075.69;;;28.65;29.73
16100;BME280;8154;50.830;12.082;2022-07-06T07:20:44;100077.13;;;28.68;29.85
16100;BME280;8154;50.830;12.082;2022-07-06T07:23:29;100079.59;;;28.69;29.64
16100;BME280;8154;50.830;12.082;2022-07-06T07:26:13;100082.09;;;28.71;29.65
16100;BME280;8154;50.830;12.082;2022-07-06T07:28:58;100082.31;;;28.69;29.53
16100;BME280;8154;50.830;12.082;2022-07-06T07:31:42;100082.31;;;28.69;29.49
16100;BME280;8154;50.830;12.082;2022-07-06T07:34:27;100089.53;;;28.69;29.44
16100;BME280;8154;50.830;12.082;2022-07-06T07:37:11;100092.41;;;28.74;29.40
16100;BME280;8154;50.830;12.082;2022-07-06T07:39:55;100095.09;;;28.74;29.17
16100;BME280;8154;50.830;12.082;2022-07-06T07:42:39;100094.28;;;28.73;29.53
16100;BME280;8154;50.830;12.082;2022-07-06T07:45:24;100088.25;;;28.71;29.46
16100;BME280;8154;50.830;12.082;2022-07-06T07:48:08;100088.25;;;28.71;29.51
16100;BME280;8154;50.830;12.082;2022-07-06T07:50:53;100087.47;;;28.71;29.48
16100;BME280;8154;50.830;12.082;2022-07-06T07:53:37;100086.63;;;28.70;29.48
16100;BME280;8154;50.830;12.082;2022-07-06T07:56:21;100082.47;;;28.74;29.57
16100;BME280;8154;50.830;12.082;2022-07-06T07:59:06;100083.50;;;28.73;29.64
16100;BME280;8154;50.830;12.082;2022-07-06T08:01:51;100079.97;;;28.73;29.76
16100;BME280;8154;50.830;12.082;2022-07-06T08:04:35;100077.06;;;28.74;29.42
16100;BME280;8154;50.830;12.082;2022-07-06T08:07:19;100078.75;;;28.75;29.75
16100;BME280;8154;50.830;12.082;2022-07-06T08:10:04;100076.28;;;28.74;29.61
16100;BME280;8154;50.830;12.082;2022-07-06T08:12:48;100074.59;;;28.73;29.56
16100;BME280;8154;50.830;12.082;2022-07-06T08:15:34;100064.25;;;28.76;29.40
16100;BME280;8154;50.830;12.082;2022-07-06T08:18:18;100072.13;;;28.71;29.53
16100;BME280;8154;50.830;12.082;2022-07-06T08:21:03;100058.47;;;28.73;30.02
16100;BME280;8154;50.830;12.082;2022-07-06T08:23:47;100062.19;;;28.72;29.96
16100;BME280;8154;50.830;12.082;2022-07-06T08:26:32;100063.25;;;28.71;29.96
16100;BME280;8154;50.830;12.082;2022-07-06T08:29:16;100063.47;;;28.69;29.83
16100;BME280;8154;50.830;12.082;2022-07-06T08:32:00;100067.78;;;28.70;29.68
16100;BME280;8154;50.830;12.082;2022-07-06T08:34:46;100065.09;;;28.70;29.69
16100;BME280;8154;50.830;12.082;2022-07-06T08:37:30;100062.59;;;28.75;29.69
16100;BME280;8154;50.830;12.082;2022-07-06T08:40:15;100067.56;;;28.78;29.52
16100;BME280;8154;50.830;12.082;2022-07-06T08:42:59;100057.41;;;28.80;29.54
16100;BME280;8154;50.830;12.082;2022-07-06T08:45:44;100060.28;;;28.79;29.46
16100;BME280;8154;50.830;12.082;2022-07-06T08:48:32;100053.69;;;28.75;29.15
16100;BME280;8154;50.830;12.082;2022-07-06T08:51:20;100063.84;;;28.73;28.98
16100;BME280;8154;50.830;12.082;2022-07-06T08:54:04;100052.22;;;28.79;28.99
16100;BME280;8154;50.830;12.082;2022-07-06T08:56:49;100059.69;;;28.77;28.96
16100;BME280;8154;50.830;12.082;2022-07-06T08:59:34;100046.91;;;28.72;28.81
16100;BME280;8154;50.830;12.082;2022-07-06T09:02:19;100046.47;;;28.75;28.85
16100;BME280;8154;50.830;12.082;2022-07-06T09:05:08;100041.03;;;28.82;28.79
16100;BME280;8154;50.830;12.082;2022-07-06T09:07:53;100047.41;;;28.87;28.77
16100;BME280;8154;50.830;12.082;2022-07-06T09:10:37;100043.44;;;28.90;28.64
16100;BME280;8154;50.830;12.082;2022-07-06T09:13:21;100048.47;;;28.86;28.47
16100;BME280;8154;50.830;12.082;2022-07-06T09:16:13;100053.44;;;28.83;28.71
16100;BME280;8154;50.830;12.082;2022-07-06T09:18:58;100039.59;;;28.79;28.66
16100;BME280;8154;50.830;12.082;2022-07-06T09:21:42;100045.38;;;28.83;28.62
16100;BME280;8154;50.830;12.082;2022-07-06T09:24:27;100047.66;;;28.79;28.35
16100;BME280;8154;50.830;12.082;2022-07-06T09:27:16;100043.53;;;28.83;28.39
16100;BME280;8154;50.830;12.082;2022-07-06T09:30:04;100045.63;;;28.75;28.55
16100;BME280;8154;50.830;12.082;2022-07-06T09:32:51;100046.84;;;28.79;28.75
16100;BME280;8154;50.830;12.082;2022-07-06T09:35:39;100038.38;;;28.75;28.48
16100;BME280;8154;50.830;12.082;2022-07-06T09:38:26;100034.66;;;28.76;28.21
16100;BME280;8154;50.830;12.082;2022-07-06T09:41:10;100031.56;;;28.73;28.38
16100;BME280;8154;50.830;12.082;2022-07-06T09:43:57;100041.09;;;28.75;28.44
16100;BME280;8154;50.830;12.082;2022-07-06T09:46:42;100038.59;;;28.74;28.48
16100;BME280;8154;50.830;12.082;2022-07-06T09:49:27;100037.13;;;28.78;28.30
16100;BME280;8154;50.830;12.082;2022-07-06T09:52:12;100029.88;;;28.78;28.18
16100;BME280;8154;50.830;12.082;2022-07-06T09:54:57;100032.78;;;28.77;28.49
16100;BME280;8154;50.830;12.082;2022-07-06T09:57:52;100034.00;;;28.81;28.37
16100;BME280;8154;50.830;12.082;2022-07-06T10:00:37;100049.34;;;28.80;28.24
16100;BME280;8154;50.830;12.082;2022-07-06T10:03:22;100046.47;;;28.75;28.47
16100;BME280;8154;50.830;12.082;2022-07-06T10:06:07;100050.81;;;28.70;28.54
16100;BME280;8154;50.830;12.082;2022-07-06T10:08:53;100044.63;;;28.69;28.25
16100;BME280;8154;50.830;12.082;2022-07-06T10:11:52;100035.28;;;28.72;28.47
16100;BME280;8154;50.830;12.082;2022-07-06T10:14:37;100031.34;;;28.74;28.50
16100;BME280;8154;50.830;12.082;2022-07-06T10:17:22;100030.75;;;28.72;28.04
16100;BME280;8154;50.830;12.082;2022-07-06T10:20:08;100029.28;;;28.70;28.06
16100;BME280;8154;50.830;12.082;2022-07-06T10:22:54;100025.19;;;28.67;27.87
16100;BME280;8154;50.830;12.082;2022-07-06T10:25:38;100026.59;;;28.70;27.64
16100;BME280;8154;50.830;12.082;2022-07-06T10:28:23;100020.78;;;28.73;27.92
16100;BME280;8154;50.830;12.082;2022-07-06T10:31:08;100027.44;;;28.70;27.90
16100;BME280;8154;50.830;12.082;2022-07-06T10:33:58;100028.50;;;28.69;27.87
16100;BME280;8154;50.830;12.082;2022-07-06T10:36:47;100023.75;;;28.65;27.78
16100;BME280;8154;50.830;12.082;2022-07-06T10:39:34;100024.13;;;28.68;27.88
16100;BME280;8154;50.830;12.082;2022-07-06T10:42:46;100015.84;;;28.70;27.65
16100;BME280;8154;50.830;12.082;2022-07-06T10:48:20;100007.97;;;28.75;27.68
16100;BME280;8154;50.830;12.082;2022-07-06T10:51:05;100013.78;;;28.72;27.83
16100;BME280;8154;50.830;12.082;2022-07-06T10:53:58;100007.56;;;28.71;28.05
16100;BME280;8154;50.830;12.082;2022-07-06T10:56:46;100006.75;;;28.71;28.08
16100;BME280;8154;50.830;12.082;2022-07-06T10:59:30;100016.25;;;28.73;27.46
16100;BME280;8154;50.830;12.082;2022-07-06T11:02:16;100009.00;;;28.74;27.70
16100;BME280;8154;50.830;12.082;2022-07-06T11:05:00;100009.81;;;28.74;27.67
16100;BME280;8154;50.830;12.082;2022-07-06T11:07:50;100015.03;;;28.69;27.66
16100;BME280;8154;50.830;12.082;2022-07-06T11:10:47;100002.19;;;28.71;27.72
16100;BME280;8154;50.830;12.082;2022-07-06T11:13:32;100004.44;;;28.74;27.52
16100;BME280;8154;50.830;12.082;2022-07-06T11:16:17;100008.78;;;28.75;27.51
16100;BME280;8154;50.830;12.082;2022-07-06T11:19:09;100007.53;;;28.78;27.18
16100;BME280;8154;50.830;12.082;2022-07-06T11:24:42;100007.56;;;28.71;27.13
16100;BME280;8154;50.830;12.082;2022-07-06T11:27:26;100008.19;;;28.73;27.18
16100;BME280;8154;50.830;12.082;2022-07-06T11:30:11;100013.38;;;28.68;27.25
16100;BME280;8154;50.830;12.082;2022-07-06T11:32:56;100008.00;;;28.68;27.48
16100;BME280;8154;50.830;12.082;2022-07-06T11:35:40;100004.88;;;28.71;27.55
16100;BME280;8154;50.830;12.082;2022-07-06T11:38:25;100008.63;;;28.70;27.56
16100;BME280;8154;50.830;12.082;2022-07-06T11:41:11;100006.34;;;28.67;27.88
16100;BME280;8154;50.830;12.082;2022-07-06T11:43:57;100000.34;;;28.65;27.41
16100;BME280;8154;50.830;12.082;2022-07-06T11:46:41;100001.59;;;28.69;27.54
16100;BME280;8154;50.830;12.082;2022-07-06T11:49:26;99995.78;;;28.72;27.52
16100;BME280;8154;50.830;12.082;2022-07-06T11:52:12;99986.88;;;28.72;27.08
16100;BME280;8154;50.830;12.082;2022-07-06T11:54:59;99986.31;;;28.63;27.63
16100;BME280;8154;50.830;12.082;2022-07-06T11:57:44;99993.97;;;28.66;27.29
16100;BME280;8154;50.830;12.082;2022-07-06T12:00:29;99989.00;;;28.63;27.23
16100;BME280;8154;50.830;12.082;2022-07-06T12:03:15;99991.69;;;28.63;27.37
16100;BME280;8154;50.830;12.082;2022-07-06T12:06:12;99987.13;;;28.64;27.36
16100;BME280;8154;50.830;12.082;2022-07-06T12:08:58;99985.50;;;28.63;27.39
16100;BME280;8154;50.830;12.082;2022-07-06T12:11:45;99974.31;;;28.59;27.30
16100;BME280;8154;50.830;12.082;2022-07-06T12:14:35;99976.41;;;28.57;27.19
16100;BME280;8154;50.830;12.082;2022-07-06T12:17:19;99981.78;;;28.57;27.36
16100;BME280;8154;50.830;12.082;2022-07-06T12:20:04;99972.69;;;28.58;27.31
16100;BME280;8154;50.830;12.082;2022-07-06T12:22:49;99964.00;;;28.56;27.25
16100;BME280;8154;50.830;12.082;2022-07-06T12:25:35;99955.72;;;28.58;26.94
16100;BME280;8154;50.830;12.082;2022-07-06T12:28:23;99946.81;;;28.57;27.26
16100;BME280;8154;50.830;12.082;2022-07-06T12:31:07;99962.53;;;28.60;26.82
16100;BME280;8154;50.830;12.082;2022-07-06T12:33:59;99956.56;;;28.58;26.79
16100;BME280;8154;50.830;12.082;2022-07-06T12:36:52;99961.75;;;28.53;27.00
16100;BME280;8154;50.830;12.082;2022-07-06T12:39:47;99956.81;;;28.50;27.24
16100;BME280;8154;50.830;12.082;2022-07-06T12:42:31;99957.84;;;28.49;26.87
16100;BME280;8154;50.830;12.082;2022-07-06T12:45:16;99954.34;;;28.49;26.90
16100;BME280;8154;50.830;12.082;2022-07-06T12:48:03;99955.75;;;28.51;27.13
16100;BME280;8154;50.830;12.082;2022-07-06T12:50:48;99953.06;;;28.51;26.99
16100;BME280;8154;50.830;12.082;2022-07-06T12:53:33;99950.38;;;28.51;26.91
16100;BME280;8154;50.830;12.082;2022-07-06T12:56:17;99946.06;;;28.50;27.06
16100;BME280;8154;50.830;12.082;2022-07-06T12:59:02;99945.25;;;28.43;26.73
16100;BME280;8154;50.830;12.082;2022-07-06T13:01:47;99948.13;;;28.48;27.01
16100;BME280;8154;50.830;12.082;2022-07-06T13:04:32;99943.81;;;28.41;26.59
16100;BME280;8154;50.830;12.082;2022-07-06T13:07:19;99936.13;;;28.44;26.53
16100;BME280;8154;50.830;12.082;2022-07-06T13:10:08;99938.81;;;28.44;26.42
16100;BME280;8154;50.830;12.082;2022-07-06T13:12:52;99943.16;;;28.45;26.27
16100;BME280;8154;50.830;12.082;2022-07-06T13:15:37;99932.59;;;28.50;26.42
16100;BME280;8154;50.830;12.082;2022-07-06T13:18:21;99940.25;;;28.53;26.19
16100;BME280;8154;50.830;12.082;2022-07-06T13:21:05;99935.28;;;28.50;26.37
16100;BME280;8154;50.830;12.082;2022-07-06T13:23:49;99938.81;;;28.51;26.26
16100;BME280;8154;50.830;12.082;2022-07-06T13:26:33;99944.41;;;28.49;26.17
16100;BME280;8154;50.830;12.082;2022-07-06T13:29:18;99945.66;;;28.47;26.32
16100;BME280;8154;50.830;12.082;2022-07-06T13:32:05;99927.44;;;28.49;26.04
16100;BME280;8154;50.830;12.082;2022-07-06T13:34:50;99928.69;;;28.46;26.30
16100;BME280;8154;50.830;12.082;2022-07-06T13:37:35;99936.56;;;28.48;26.48
16100;BME280;8154;50.830;12.082;2022-07-06T13:40:19;99932.59;;;28.44;26.80
16100;BME280;8154;50.830;12.082;2022-07-06T13:43:03;99921.84;;;28.44;26.63
16100;BME280;8154;50.830;12.082;2022-07-06T13:45:47;99923.75;;;28.43;26.35
16100;BME280;8154;50.830;12.082;2022-07-06T13:48:33;99925.59;;;28.43;26.34
16100;BME280;8154;50.830;12.082;2022-07-06T13:51:17;99926.44;;;28.43;26.40
16100;BME280;8154;50.830;12.082;2022-07-06T13:54:01;99923.31;;;28.46;26.51
16100;BME280;8154;50.830;12.082;2022-07-06T13:56:46;99924.13;;;28.47;26.33
16100;BME280;8154;50.830;12.082;2022-07-06T13:59:31;99928.69;;;28.46;26.55
16100;BME280;8154;50.830;12.082;2022-07-06T14:02:15;99926.81;;;28.47;26.60
16100;BME280;8154;50.830;12.082;2022-07-06T14:04:59;99921.06;;;28.43;26.44
16100;BME280;8154;50.830;12.082;2022-07-06T14:07:43;99908.84;;;28.41;25.84
16100;BME280;8154;50.830;12.082;2022-07-06T14:10:29;99909.66;;;28.48;25.96
16100;BME280;8154;50.830;12.082;2022-07-06T14:13:12;99906.75;;;28.49;25.73
16100;BME280;8154;50.830;12.082;2022-07-06T14:15:57;99914.22;;;28.47;25.63
16100;BME280;8154;50.830;12.082;2022-07-06T14:18:41;99907.78;;;28.48;25.79
16100;BME280;8154;50.830;12.082;2022-07-06T14:21:27;99918.53;;;28.48;25.73
16100;BME280;8154;50.830;12.082;2022-07-06T14:24:11;99907.56;;;28.50;25.56
16100;BME280;8154;50.830;12.082;2022-07-06T14:26:55;99907.13;;;28.53;25.91
16100;BME280;8154;50.830;12.082;2022-07-06T14:29:40;99910.03;;;28.51;25.61
16100;BME280;8154;50.830;12.082;2022-07-06T14:32:24;99907.97;;;28.53;25.20
16100;BME280;8154;50.830;12.082;2022-07-06T14:35:09;99908.59;;;28.55;24.93